Time;durP1;ratioP1;P1;durP2;ratioP2;P2;SDS_P1;SDS_P2;PMS_P1;PMS_P2;Temp;Humidity;BMP_temperature;BMP_pressure;BME280_temperature;BME280_humidity;BME280_pressure;Samples;Min_cycle;Max_cycle;Signal;HPM_P1;HPM_P2
2021/03/31 00:00:43;;;;;;;22.30;16.27;;;;;;;9.74;90.73;102501.09;5035926;28;20029;-74
2021/03/31 00:03:29;;;;;;;21.20;15.57;;;;;;;9.56;91.59;102503.44;5037167;28;20029;-74
2021/03/31 00:06:14;;;;;;;22.65;15.90;;;;;;;9.07;95.63;102490.47;5035566;28;20112;-73
2021/03/31 00:09:00;;;;;;;24.98;16.08;;;;;;;9.04;97.10;102497.34;5036740;28;20021;-74
2021/03/31 00:11:46;;;;;;;26.80;17.77;;;;;;;8.98;98.18;102499.88;5036344;28;20018;-76
2021/03/31 00:14:32;;;;;;;23.88;17.77;;;;;;;9.30;96.01;102496.06;5022444;28;20457;-74
2021/03/31 00:17:17;;;;;;;25.20;17.08;;;;;;;8.78;99.76;102496.91;5036600;28;20072;-74
2021/03/31 00:20:04;;;;;;;24.27;17.90;;;;;;;8.78;100.00;102491.69;5035383;28;20034;-76
2021/03/31 00:22:50;;;;;;;26.30;18.10;;;;;;;8.79;100.00;102496.06;5036842;28;20087;-74
2021/03/31 00:25:37;;;;;;;27.52;19.10;;;;;;;8.87;100.00;102491.84;5036108;28;20025;-74
2021/03/31 00:28:24;;;;;;;27.75;18.52;;;;;;;8.47;100.00;102484.13;5020718;28;20025;-74
2021/03/31 00:31:11;;;;;;;28.10;19.38;;;;;;;8.98;100.00;102487.69;5036182;28;20110;-76
2021/03/31 00:33:56;;;;;;;26.63;17.85;;;;;;;9.24;99.31;102488.09;5036410;28;20067;-78
2021/03/31 00:36:42;;;;;;;25.95;17.95;;;;;;;9.21;98.67;102490.69;5035424;28;20029;-77
2021/03/31 00:39:28;;;;;;;25.90;17.92;;;;;;;8.97;99.92;102485.06;5035523;28;20022;-75
2021/03/31 00:42:14;;;;;;;24.13;17.63;;;;;;;9.02;100.00;102484.28;5036081;28;20144;-75
2021/03/31 00:44:59;;;;;;;25.90;17.77;;;;;;;8.77;100.00;102486.44;5036196;28;20034;-74
2021/03/31 00:47:45;;;;;;;24.83;17.65;;;;;;;9.11;99.64;102489.66;5036106;28;20476;-74
2021/03/31 00:50:31;;;;;;;23.90;17.63;;;;;;;8.92;99.48;102492.78;5035819;28;20030;-75
2021/03/31 00:53:23;;;;;;;24.08;17.20;;;;;;;8.98;99.71;102489.41;5022507;28;20036;-75
2021/03/31 00:56:08;;;;;;;22.90;17.70;;;;;;;8.73;100.00;102489.84;5035382;28;20033;-74
2021/03/31 00:58:54;;;;;;;25.35;18.10;;;;;;;8.27;100.00;102481.97;5020847;28;20327;-74
2021/03/31 01:01:40;;;;;;;25.38;17.20;;;;;;;8.33;100.00;102488.19;5035547;28;20036;-74
2021/03/31 01:04:26;;;;;;;25.95;17.50;;;;;;;8.72;100.00;102477.63;5021714;28;20026;-74
2021/03/31 01:07:11;;;;;;;23.23;16.08;;;;;;;8.77;100.00;102475.97;5035344;28;20468;-74
2021/03/31 01:09:57;;;;;;;24.80;17.67;;;;;;;8.54;100.00;102475.56;5035669;28;20112;-74
2021/03/31 01:13:20;;;;;;;24.55;16.83;;;;;;;8.21;100.00;102469.69;5020796;28;20030;-74
2021/03/31 01:16:33;;;;;;;41.67;18.45;;;;;;;8.27;100.00;102479.34;5035466;28;20108;-74
2021/03/31 01:19:56;;;;;;;27.20;17.00;;;;;;;8.11;100.00;102479.84;5022083;28;20136;-74
2021/03/31 01:23:00;;;;;;;26.40;18.00;;;;;;;7.75;100.00;102484.28;5021408;28;20457;-75
2021/03/31 01:26:06;;;;;;;25.73;17.55;;;;;;;8.06;100.00;102479.78;5021263;28;20026;-74
2021/03/31 01:29:17;;;;;;;29.40;18.90;;;;;;;8.49;100.00;102477.19;5022418;28;20025;-75
2021/03/31 01:32:18;;;;;;;24.70;16.75;;;;;;;8.37;100.00;102476.94;5034753;28;20089;-75
2021/03/31 01:35:09;;;;;;;24.38;18.02;;;;;;;8.44;100.00;102472.75;5035045;28;20148;-74
2021/03/31 01:38:01;;;;;;;24.63;16.92;;;;;;;8.10;100.00;102478.09;5021923;28;20060;-74
2021/03/31 01:40:50;;;;;;;25.27;16.60;;;;;;;7.99;100.00;102477.00;5035145;28;20041;-73
2021/03/31 01:43:35;;;;;;;26.08;18.40;;;;;;;7.91;100.00;102481.16;5033953;28;20446;-74
2021/03/31 01:46:27;;;;;;;27.30;18.65;;;;;;;7.78;100.00;102479.16;5035031;28;20040;-74
2021/03/31 01:49:13;;;;;;;27.90;19.20;;;;;;;7.94;100.00;102479.53;5020120;28;20083;-74
2021/03/31 01:52:02;;;;;;;33.10;20.40;;;;;;;7.98;100.00;102485.69;5035248;28;20108;-74
2021/03/31 01:54:49;;;;;;;37.60;21.13;;;;;;;7.79;100.00;102480.91;5034428;28;20021;-75
2021/03/31 01:57:35;;;;;;;36.33;21.42;;;;;;;7.79;100.00;102488.72;5034611;28;20505;-74
2021/03/31 02:00:22;;;;;;;33.75;22.17;;;;;;;8.01;100.00;102488.38;5021433;28;20059;-74
2021/03/31 02:03:08;;;;;;;34.92;23.05;;;;;;;8.37;100.00;102481.31;5034427;28;20033;-75
2021/03/31 02:05:55;;;;;;;33.22;22.58;;;;;;;8.28;100.00;102486.38;5034744;28;20099;-75
2021/03/31 02:08:41;;;;;;;32.63;22.15;;;;;;;8.35;100.00;102478.66;5034487;28;20061;-74
2021/03/31 02:11:29;;;;;;;31.13;22.23;;;;;;;8.37;100.00;102474.34;5034589;28;20041;-74
2021/03/31 02:14:19;;;;;;;34.40;22.83;;;;;;;8.27;100.00;102479.34;5034083;28;20033;-74
2021/03/31 02:17:08;;;;;;;35.30;22.30;;;;;;;7.87;100.00;102474.13;5019741;28;20021;-75
2021/03/31 02:19:54;;;;;;;38.67;24.15;;;;;;;8.38;100.00;102463.06;5033873;28;20498;-74
2021/03/31 02:22:41;;;;;;;41.05;25.13;;;;;;;8.08;100.00;102469.38;5020450;28;20033;-74
2021/03/31 02:25:27;;;;;;;35.25;23.80;;;;;;;7.93;100.00;102474.28;5020767;28;20100;-75
2021/03/31 02:28:13;;;;;;;37.42;24.52;;;;;;;8.43;100.00;102470.97;5034078;28;20121;-75
2021/03/31 02:30:59;;;;;;;37.90;24.02;;;;;;;8.54;100.00;102467.72;5021085;28;20065;-75
2021/03/31 02:33:45;;;;;;;36.28;24.27;;;;;;;8.68;100.00;102465.38;5021610;28;20390;-75
2021/03/31 02:36:33;;;;;;;39.55;24.75;;;;;;;8.57;100.00;102467.75;5033829;28;20030;-74
2021/03/31 02:39:21;;;;;;;37.47;23.88;;;;;;;8.24;100.00;102463.66;5034101;28;20078;-74
2021/03/31 02:42:12;;;;;;;38.72;23.80;;;;;;;8.27;100.00;102461.97;5020157;28;20136;-75
2021/03/31 02:44:59;;;;;;;35.95;23.48;;;;;;;8.35;100.00;102463.00;5019949;28;20112;-74
2021/03/31 02:47:47;;;;;;;37.30;23.75;;;;;;;7.93;100.00;102471.66;5033704;28;20052;-75
2021/03/31 02:50:34;;;;;;;39.38;24.33;;;;;;;7.91;100.00;102475.94;5033739;28;20017;-75
2021/03/31 02:53:21;;;;;;;38.97;25.15;;;;;;;7.93;100.00;102477.78;5033653;28;20057;-75
2021/03/31 02:56:08;;;;;;;44.17;25.85;;;;;;;7.88;100.00;102468.94;5033314;28;20030;-75
2021/03/31 02:58:55;;;;;;;42.38;25.52;;;;;;;7.52;100.00;102472.50;5033824;28;20030;-73
2021/03/31 03:01:42;;;;;;;35.35;23.73;;;;;;;8.05;100.00;102475.41;5033320;28;20029;-75
2021/03/31 03:04:28;;;;;;;36.75;23.92;;;;;;;7.79;100.00;102481.81;5034171;28;20030;-75
2021/03/31 03:07:15;;;;;;;39.20;24.58;;;;;;;7.38;100.00;102479.09;5033405;28;20053;-75
2021/03/31 03:10:02;;;;;;;36.70;24.52;;;;;;;7.35;100.00;102482.50;5033728;28;20067;-74
2021/03/31 03:12:51;;;;;;;36.75;23.63;;;;;;;7.40;100.00;102483.50;5034109;28;20469;-74
2021/03/31 03:15:37;;;;;;;38.53;23.15;;;;;;;7.26;100.00;102477.09;5034162;28;20029;-74
2021/03/31 03:18:24;;;;;;;35.55;22.20;;;;;;;7.65;100.00;102482.34;5033392;28;20048;-75
2021/03/31 03:21:12;;;;;;;41.42;24.48;;;;;;;8.19;100.00;102491.34;5020162;28;20017;-73
2021/03/31 03:23:59;;;;;;;37.97;23.58;;;;;;;8.10;100.00;102485.94;5037053;28;20091;-73
2021/03/31 03:26:45;;;;;;;46.00;24.75;;;;;;;8.22;100.00;102491.44;5037199;28;20103;-75
2021/03/31 03:29:31;;;;;;;43.00;24.08;;;;;;;7.98;100.00;102488.28;5037139;28;20163;-75
2021/03/31 03:32:17;;;;;;;41.08;25.67;;;;;;;8.25;100.00;102487.19;5036886;28;20028;-74
2021/03/31 03:35:04;;;;;;;36.78;23.88;;;;;;;8.21;100.00;102487.97;5037798;28;20025;-75
2021/03/31 03:37:51;;;;;;;39.72;23.88;;;;;;;8.29;100.00;102482.88;5037383;28;20037;-75
2021/03/31 03:40:38;;;;;;;41.67;25.63;;;;;;;8.01;100.00;102480.53;5037054;28;20128;-74
2021/03/31 03:43:24;;;;;;;42.85;26.70;;;;;;;7.51;100.00;102482.03;5036627;28;20369;-76
2021/03/31 03:46:12;;;;;;;46.33;26.13;;;;;;;7.55;100.00;102489.06;5022825;28;20473;-74
2021/03/31 03:48:59;;;;;;;54.00;26.35;;;;;;;7.65;100.00;102491.06;5024046;28;20449;-74
2021/03/31 03:51:45;;;;;;;42.42;24.60;;;;;;;7.08;100.00;102483.59;5023968;28;20063;-74
2021/03/31 03:54:31;;;;;;;44.95;25.83;;;;;;;7.12;100.00;102494.09;5036732;28;20154;-75
2021/03/31 03:57:28;;;;;;;47.75;26.33;;;;;;;7.78;100.00;102480.03;5022997;28;20025;-73
2021/03/31 04:00:17;;;;;;;47.20;28.38;;;;;;;7.28;100.00;102484.97;5036435;28;20486;-74
2021/03/31 04:03:03;;;;;;;52.13;29.20;;;;;;;7.73;100.00;102488.63;5022101;28;20072;-75
2021/03/31 04:05:50;;;;;;;50.47;33.50;;;;;;;7.72;100.00;102485.13;5023681;28;20025;-74
2021/03/31 04:08:36;;;;;;;46.72;31.55;;;;;;;8.17;100.00;102491.34;5036642;28;20029;-75
2021/03/31 04:11:22;;;;;;;50.65;33.92;;;;;;;7.85;100.00;102486.28;5036465;28;20060;-74
2021/03/31 04:14:09;;;;;;;50.60;35.08;;;;;;;7.25;100.00;102496.19;5036369;28;20052;-75
2021/03/31 04:16:56;;;;;;;55.67;36.22;;;;;;;7.20;100.00;102491.72;5036516;28;20104;-74
2021/03/31 04:19:45;;;;;;;61.50;36.50;;;;;;;7.20;100.00;102489.09;5036193;28;20033;-75
2021/03/31 04:22:31;;;;;;;65.97;39.33;;;;;;;6.84;100.00;102490.78;5036295;28;20094;-75
2021/03/31 04:25:19;;;;;;;61.67;37.92;;;;;;;6.98;100.00;102486.78;5035479;28;20108;-74
2021/03/31 04:28:09;;;;;;;60.80;36.58;;;;;;;7.19;100.00;102492.56;5036809;28;20358;-74
2021/03/31 04:30:56;;;;;;;53.55;34.25;;;;;;;7.21;100.00;102493.47;5023300;28;20144;-74
2021/03/31 04:33:42;;;;;;;55.10;35.95;;;;;;;7.17;100.00;102494.22;5036550;28;20025;-74
2021/03/31 04:36:31;;;;;;;55.00;36.35;;;;;;;7.09;100.00;102495.78;5035712;28;20112;-75
2021/03/31 04:39:17;;;;;;;60.65;38.55;;;;;;;7.32;100.00;102505.03;5037362;28;20438;-74
2021/03/31 04:42:03;;;;;;;61.95;39.22;;;;;;;7.14;100.00;102504.56;5034878;28;20050;-73
2021/03/31 04:44:50;;;;;;;58.42;36.72;;;;;;;7.10;100.00;102506.25;5036394;28;20033;-74
2021/03/31 04:47:37;;;;;;;61.97;36.75;;;;;;;7.28;100.00;102511.03;5022218;28;20029;-75
2021/03/31 04:50:23;;;;;;;58.45;37.22;;;;;;;7.28;100.00;102511.03;5036159;28;20049;-75
2021/03/31 04:53:09;;;;;;;55.25;35.78;;;;;;;7.55;100.00;102507.34;5021951;28;20082;-73
2021/03/31 04:55:55;;;;;;;60.83;35.22;;;;;;;7.34;100.00;102508.56;5022850;28;20105;-74
2021/03/31 04:58:40;;;;;;;58.35;37.28;;;;;;;7.79;100.00;102510.50;5035915;28;20033;-74
2021/03/31 05:01:26;;;;;;;62.20;37.85;;;;;;;7.64;100.00;102517.13;5035478;28;20029;-73
2021/03/31 05:04:12;;;;;;;62.90;39.90;;;;;;;7.21;100.00;102516.94;5036156;28;20022;-73
2021/03/31 05:06:58;;;;;;;61.35;37.80;;;;;;;7.50;100.00;102515.91;5035341;28;20108;-74
2021/03/31 05:09:43;;;;;;;55.85;35.10;;;;;;;7.76;100.00;102513.03;5034477;28;20091;-72
2021/03/31 05:12:29;;;;;;;59.60;35.67;;;;;;;7.71;100.00;102509.44;5034858;28;20029;-74
2021/03/31 05:15:15;;;;;;;57.42;37.72;;;;;;;8.25;100.00;102512.41;5035458;28;20036;-75
2021/03/31 05:18:01;;;;;;;61.63;37.30;;;;;;;8.14;100.00;102509.53;5034865;28;20095;-72
2021/03/31 05:20:47;;;;;;;54.83;31.75;;;;;;;8.26;100.00;102515.06;5034196;28;20199;-73
2021/03/31 05:23:33;;;;;;;53.15;33.10;;;;;;;8.18;100.00;102513.97;5020549;28;20038;-74
2021/03/31 05:26:18;;;;;;;58.42;34.75;;;;;;;7.92;100.00;102515.13;5034869;28;20025;-74
2021/03/31 05:29:05;;;;;;;46.25;29.48;;;;;;;8.15;100.00;102516.50;5035165;28;20033;-74
2021/03/31 05:31:50;;;;;;;42.50;27.42;;;;;;;8.15;100.00;102513.00;5035143;28;20339;-74
2021/03/31 05:34:36;;;;;;;44.65;29.02;;;;;;;8.06;100.00;102510.22;5033826;28;20031;-74
2021/03/31 05:37:22;;;;;;;47.20;28.90;;;;;;;8.09;100.00;102513.78;5021732;28;20068;-72
2021/03/31 05:40:08;;;;;;;53.13;31.83;;;;;;;8.11;100.00;102517.31;5034483;28;20030;-73
2021/03/31 05:42:57;;;;;;;54.03;29.95;;;;;;;8.32;100.00;102511.69;5035154;28;20091;-74
2021/03/31 05:45:45;;;;;;;47.83;28.30;;;;;;;8.58;100.00;102516.56;5034575;28;20092;-74
2021/03/31 05:48:31;;;;;;;45.65;27.85;;;;;;;8.37;100.00;102504.81;5035052;28;20032;-74
2021/03/31 05:51:17;;;;;;;50.60;29.38;;;;;;;8.66;100.00;102504.53;5020760;28;20029;-74
2021/03/31 05:54:03;;;;;;;48.17;29.15;;;;;;;9.30;100.00;102510.03;5034262;28;20026;-74
2021/03/31 05:56:50;;;;;;;54.38;29.73;;;;;;;8.85;100.00;102513.59;5034420;28;20029;-73
2021/03/31 05:59:37;;;;;;;46.25;27.80;;;;;;;8.57;100.00;102504.34;5034923;28;20106;-73
2021/03/31 06:02:23;;;;;;;52.15;28.83;;;;;;;9.02;100.00;102509.53;5034001;28;20076;-74
2021/03/31 06:05:11;;;;;;;78.15;42.35;;;;;;;9.25;100.00;102503.81;5021628;28;20097;-75
2021/03/31 06:07:58;;;;;;;75.43;44.53;;;;;;;9.52;100.00;102511.22;5019401;28;20156;-76
2021/03/31 06:10:44;;;;;;;91.05;47.67;;;;;;;9.47;100.00;102505.03;5034659;28;20112;-73
2021/03/31 06:13:53;;;;;;;86.13;42.00;;;;;;;9.46;100.00;102513.75;5020012;28;20388;-75
2021/03/31 06:16:45;;;;;;;68.60;38.33;;;;;;;9.30;100.00;102512.66;5034017;28;20029;-72
2021/03/31 06:19:33;;;;;;;56.72;34.13;;;;;;;9.36;100.00;102511.84;5020089;28;20462;-73
2021/03/31 06:22:23;;;;;;;54.03;34.83;;;;;;;9.45;100.00;102506.78;5034458;28;20025;-76
2021/03/31 06:25:24;;;;;;;52.97;30.52;;;;;;;8.67;100.00;102502.78;5033572;28;20025;-75
2021/03/31 06:28:09;;;;;;;50.25;30.52;;;;;;;8.71;100.00;102501.97;5033239;28;20095;-75
2021/03/31 06:31:12;;;;;;;50.42;29.95;;;;;;;8.86;100.00;102504.88;5034040;28;20045;-76
2021/03/31 06:34:05;;;;;;;42.10;28.83;;;;;;;8.96;100.00;102506.81;5033650;28;20037;-78
2021/03/31 06:36:59;;;;;;;49.20;30.02;;;;;;;8.70;100.00;102500.22;5033690;28;20054;-73
2021/03/31 06:39:45;;;;;;;52.95;29.83;;;;;;;8.64;100.00;102503.59;5033916;28;20477;-74
2021/03/31 06:42:42;;;;;;;46.22;29.58;;;;;;;8.90;100.00;102504.09;5032055;28;20184;-74
2021/03/31 06:45:38;;;;;;;48.58;29.60;;;;;;;9.46;100.00;102513.75;5035046;28;20037;-74
2021/03/31 06:48:27;;;;;;;44.85;29.10;;;;;;;9.16;100.00;102508.00;5033604;28;20037;-74
2021/03/31 06:51:33;;;;;;;43.47;28.42;;;;;;;9.51;100.00;102499.91;5033381;28;20022;-74
2021/03/31 06:54:21;;;;;;;45.85;27.67;;;;;;;9.40;100.00;102504.06;5019638;28;20097;-72
2021/03/31 06:57:07;;;;;;;45.08;27.25;;;;;;;9.59;100.00;102508.75;5036751;28;20366;-74
2021/03/31 07:00:00;;;;;;;42.15;26.27;;;;;;;9.57;100.00;102502.59;5037819;28;20044;-74
2021/03/31 07:02:50;;;;;;;39.03;25.02;;;;;;;9.75;100.00;102502.88;5037368;28;20034;-74
2021/03/31 07:05:40;;;;;;;39.20;25.48;;;;;;;9.40;100.00;102496.22;5037760;28;20112;-78
2021/03/31 07:08:35;;;;;;;38.50;26.15;;;;;;;10.07;100.00;102498.09;5037603;28;20025;-75
2021/03/31 07:11:40;;;;;;;39.13;26.17;;;;;;;9.85;100.00;102506.50;5037875;28;20362;-75
2021/03/31 07:20:43;;;;;;;39.83;23.63;;;;;;;10.48;100.00;102493.38;5740300;23;20068;-73
2021/03/31 07:23:29;;;;;;;32.97;23.02;;;;;;;10.70;100.00;102503.19;5020036;28;20028;-74
2021/03/31 07:26:15;;;;;;;31.85;22.08;;;;;;;10.91;100.00;102496.44;5036647;28;20037;-75
2021/03/31 07:29:01;;;;;;;33.53;22.55;;;;;;;10.87;100.00;102501.63;5023557;28;20029;-78
2021/03/31 07:31:48;;;;;;;38.45;22.65;;;;;;;11.17;100.00;102496.66;5036494;28;20037;-76
2021/03/31 07:34:38;;;;;;;34.10;23.42;;;;;;;10.50;100.00;102497.75;5036253;28;20018;-75
2021/03/31 07:37:24;;;;;;;35.67;23.70;;;;;;;10.53;100.00;102494.28;5036999;28;20108;-76
2021/03/31 07:40:12;;;;;;;35.88;23.90;;;;;;;11.15;100.00;102491.41;5037099;28;20029;-76
2021/03/31 07:43:07;;;;;;;37.70;23.65;;;;;;;11.68;100.00;102495.31;5022627;28;20183;-75
2021/03/31 07:46:00;;;;;;;37.03;23.05;;;;;;;11.07;100.00;102492.19;5036753;28;20044;-75
2021/03/31 07:48:46;;;;;;;35.05;22.40;;;;;;;11.30;100.00;102485.41;5037316;28;20037;-75
2021/03/31 07:51:33;;;;;;;35.70;23.75;;;;;;;11.13;100.00;102481.75;5036894;28;20454;-76
2021/03/31 07:54:18;;;;;;;32.90;24.05;;;;;;;12.14;99.02;102483.31;5021541;28;20021;-75
2021/03/31 07:57:24;;;;;;;35.13;22.80;;;;;;;11.39;100.00;102488.09;5036577;28;20021;-75
2021/03/31 08:00:11;;;;;;;34.53;22.27;;;;;;;11.65;100.00;102479.53;5036666;28;20358;-74
2021/03/31 08:02:57;;;;;;;34.38;23.02;;;;;;;12.38;95.29;102475.53;5036382;28;20025;-75
2021/03/31 08:06:02;;;;;;;28.80;20.98;;;;;;;12.40;93.31;102473.75;5020981;28;20422;-76
2021/03/31 08:08:49;;;;;;;32.17;22.20;;;;;;;12.55;93.11;102469.44;5035689;28;20533;-75
2021/03/31 08:11:41;;;;;;;29.85;21.02;;;;;;;12.66;89.39;102470.31;5021270;28;20032;-78
2021/03/31 08:14:26;;;;;;;25.55;20.05;;;;;;;13.40;85.84;102473.00;5021159;28;20105;-76
2021/03/31 08:17:14;;;;;;;28.48;19.35;;;;;;;13.22;85.46;102467.78;5035347;28;20481;-76
2021/03/31 08:20:00;;;;;;;32.15;19.92;;;;;;;13.85;81.55;102465.91;5035737;28;20373;-74
2021/03/31 08:22:45;;;;;;;28.90;19.50;;;;;;;14.13;80.82;102449.09;5036648;28;20417;-76
2021/03/31 08:25:31;;;;;;;29.30;18.50;;;;;;;14.23;76.85;102450.84;5035949;28;20043;-73
2021/03/31 08:28:37;;;;;;;26.63;18.63;;;;;;;14.49;75.08;102450.69;5020925;28;20079;-73
2021/03/31 08:31:28;;;;;;;24.02;17.55;;;;;;;14.53;71.74;102442.75;5020114;28;20116;-72
2021/03/31 08:34:15;;;;;;;23.00;17.92;;;;;;;14.98;69.76;102441.53;5021287;28;20025;-74
2021/03/31 08:37:06;;;;;;;24.02;16.85;;;;;;;15.36;67.58;102435.97;5036262;28;20022;-73
2021/03/31 08:39:58;;;;;;;24.23;16.25;;;;;;;14.81;68.78;102438.16;5021485;28;20021;-74
2021/03/31 08:42:53;;;;;;;24.98;16.98;;;;;;;15.03;65.57;102433.59;5035697;28;20040;-74
2021/03/31 08:45:40;;;;;;;25.75;16.75;;;;;;;15.13;65.32;102433.50;5021281;28;20025;-73
2021/03/31 08:48:41;;;;;;;29.83;16.80;;;;;;;14.73;63.91;102426.78;5021014;28;20029;-73
2021/03/31 08:51:26;;;;;;;27.05;16.58;;;;;;;14.59;65.79;102418.13;5021225;28;20091;-73
2021/03/31 08:54:12;;;;;;;27.02;16.45;;;;;;;14.86;64.86;102422.31;5035399;28;20052;-73
2021/03/31 08:57:00;;;;;;;22.23;15.52;;;;;;;15.32;62.88;102423.63;5035024;28;20084;-73
2021/03/31 08:59:52;;;;;;;22.33;14.60;;;;;;;15.33;62.59;102418.34;5035511;28;20025;-74
2021/03/31 09:02:41;;;;;;;21.48;13.00;;;;;;;15.69;59.68;102412.69;5033768;28;20448;-73
2021/03/31 09:05:26;;;;;;;21.45;11.45;;;;;;;15.74;55.50;102407.34;5020642;28;20056;-74
2021/03/31 09:08:12;;;;;;;21.13;12.98;;;;;;;15.49;56.12;102406.75;5035003;28;20403;-73
2021/03/31 09:11:01;;;;;;;20.48;12.90;;;;;;;15.74;54.35;102400.31;5035191;28;20334;-74
2021/03/31 09:13:47;;;;;;;20.63;12.68;;;;;;;15.80;54.71;102396.72;5035039;28;20489;-74
2021/03/31 09:16:33;;;;;;;21.52;12.45;;;;;;;15.64;53.73;102397.78;5035090;28;20025;-74
2021/03/31 09:19:19;;;;;;;19.00;11.93;;;;;;;15.83;52.94;102396.69;5033985;28;20374;-74
2021/03/31 09:22:12;;;;;;;16.52;11.93;;;;;;;16.12;52.93;102391.88;5033928;28;20086;-75
2021/03/31 09:25:00;;;;;;;21.42;11.68;;;;;;;15.76;52.52;102387.06;5021096;28;20108;-76
2021/03/31 09:27:46;;;;;;;19.88;12.55;;;;;;;15.88;52.71;102381.63;5034953;28;20115;-75
2021/03/31 09:30:32;;;;;;;19.00;12.45;;;;;;;16.09;52.10;102386.63;5033894;28;20040;-76
2021/03/31 09:33:26;;;;;;;16.23;11.30;;;;;;;15.49;53.30;102376.81;5035148;28;20025;-76
2021/03/31 09:36:18;;;;;;;14.63;10.20;;;;;;;15.77;52.25;102372.97;5034105;28;20044;-75
2021/03/31 09:39:10;;;;;;;13.63;10.40;;;;;;;15.68;51.35;102373.97;5034904;28;20025;-73
2021/03/31 09:41:56;;;;;;;16.48;11.07;;;;;;;15.12;52.41;102376.31;5019973;28;20017;-76
2021/03/31 09:44:42;;;;;;;17.48;11.50;;;;;;;15.26;53.25;102374.38;5034514;28;20025;-75
2021/03/31 09:47:33;;;;;;;16.67;13.13;;;;;;;14.38;55.78;102355.81;5034887;28;20171;-75
2021/03/31 09:50:29;;;;;;;17.20;12.95;;;;;;;15.09;56.04;102349.94;5020761;28;20450;-74
2021/03/31 09:53:15;;;;;;;18.63;12.25;;;;;;;15.47;54.24;102350.41;5035412;28;20157;-74
2021/03/31 09:56:02;;;;;;;19.27;13.20;;;;;;;14.73;54.18;102353.78;5034312;28;20029;-74
2021/03/31 09:58:51;;;;;;;18.65;13.20;;;;;;;14.96;55.24;102348.31;5034456;28;20034;-75
2021/03/31 10:01:38;;;;;;;17.27;12.77;;;;;;;15.38;53.84;102339.09;5034523;28;20029;-75
2021/03/31 10:04:28;;;;;;;16.15;11.82;;;;;;;15.68;54.19;102338.72;5034450;28;20022;-74
2021/03/31 10:07:19;;;;;;;13.20;11.38;;;;;;;15.68;52.20;102341.38;5034138;28;20418;-75
2021/03/31 10:10:07;;;;;;;15.45;11.43;;;;;;;15.37;52.72;102332.06;5034511;28;20092;-75
2021/03/31 10:13:02;;;;;;;15.82;11.73;;;;;;;15.28;52.51;102332.13;5033451;28;20026;-76
2021/03/31 10:15:57;;;;;;;15.70;11.43;;;;;;;14.55;53.17;102337.25;5035461;28;20059;-75
2021/03/31 10:18:44;;;;;;;16.05;11.25;;;;;;;14.82;54.04;102322.94;5034475;28;20059;-74
2021/03/31 10:21:35;;;;;;;13.93;11.32;;;;;;;14.53;53.10;102317.91;5020372;28;20053;-75
2021/03/31 10:24:34;;;;;;;16.98;11.38;;;;;;;15.35;52.95;102310.06;5034330;28;20034;-75
2021/03/31 10:27:41;;;;;;;17.30;12.65;;;;;;;15.79;52.75;102310.41;5020011;28;20040;-75
2021/03/31 10:30:32;;;;;;;18.42;12.25;;;;;;;16.30;51.93;102306.97;5032991;28;20475;-74
2021/03/31 10:33:18;;;;;;;16.67;11.10;;;;;;;16.15;50.99;102297.50;5033158;28;20112;-74
2021/03/31 10:36:07;;;;;;;17.52;11.60;;;;;;;16.03;50.99;102291.53;5033817;28;20021;-76
2021/03/31 10:39:13;;;;;;;15.45;11.18;;;;;;;16.71;50.36;102288.66;5019057;28;20516;-75
2021/03/31 10:51:34;;;;;;;18.50;11.68;;;;;;;16.04;49.88;102272.13;5034343;28;20133;-75
2021/03/31 10:54:24;;;;;;;15.50;10.98;;;;;;;16.08;49.60;102271.19;5033586;28;20036;-75
2021/03/31 10:57:12;;;;;;;13.18;10.38;;;;;;;16.04;49.78;102256.28;5019234;28;20117;-75
2021/03/31 10:59:58;;;;;;;12.60;10.23;;;;;;;16.18;48.46;102248.97;5033478;28;20026;-75
2021/03/31 11:02:44;;;;;;;12.15;9.98;;;;;;;16.44;48.24;102250.31;5033287;28;20397;-75
2021/03/31 11:05:33;;;;;;;21.25;10.82;;;;;;;16.95;47.21;102248.50;5033606;28;20378;-75
2021/03/31 11:08:19;;;;;;;12.93;11.10;;;;;;;16.07;48.17;102243.84;5033703;28;20025;-74
2021/03/31 11:11:09;;;;;;;12.35;10.68;;;;;;;16.05;48.82;102244.78;5018595;28;20036;-74
2021/03/31 11:13:55;;;;;;;14.73;11.70;;;;;;;16.02;49.14;102243.06;5034131;28;20343;-74
2021/03/31 11:16:47;;;;;;;16.17;10.90;;;;;;;16.39;47.96;102243.34;5033825;28;20524;-75
2021/03/31 11:25:58;;;;;;;15.20;11.73;;;;;;;15.18;50.91;102227.53;5032913;28;20520;-74
2021/03/31 11:28:43;;;;;;;14.43;11.10;;;;;;;15.50;51.64;102228.88;5033222;28;20124;-74
2021/03/31 11:31:32;;;;;;;18.98;12.48;;;;;;;16.26;49.75;102213.59;5033749;28;20450;-73
2021/03/31 11:34:18;;;;;;;18.52;12.55;;;;;;;16.55;49.09;102207.81;5032995;28;20040;-75
2021/03/31 11:37:04;;;;;;;18.25;11.98;;;;;;;16.79;48.48;102197.63;5035161;28;20021;-75
2021/03/31 11:39:50;;;;;;;16.92;12.00;;;;;;;17.06;48.23;102191.78;5018752;28;20025;-73
2021/03/31 11:42:35;;;;;;;15.95;11.95;;;;;;;16.67;47.61;102189.03;5033646;28;20021;-74
2021/03/31 11:45:25;;;;;;;16.52;12.50;;;;;;;17.29;47.07;102192.19;5037014;28;20044;-73
2021/03/31 11:48:11;;;;;;;18.75;12.98;;;;;;;16.91;47.76;102191.22;5037398;28;20415;-73
2021/03/31 11:50:57;;;;;;;17.85;13.65;;;;;;;17.35;47.27;102181.44;5023295;28;20315;-72
2021/03/31 11:53:42;;;;;;;33.30;19.08;;;;;;;16.83;48.56;102177.25;5022155;28;20033;-73
2021/03/31 11:56:28;;;;;;;19.15;13.35;;;;;;;17.29;48.08;102175.41;5036362;28;20022;-74
2021/03/31 11:59:14;;;;;;;20.40;13.35;;;;;;;17.71;46.18;102161.19;5037161;28;20092;-72
2021/03/31 12:01:59;;;;;;;20.55;13.80;;;;;;;18.16;46.12;102155.63;5036319;28;20029;-72
2021/03/31 12:04:45;;;;;;;15.52;12.32;;;;;;;17.85;46.24;102156.44;5036789;28;20435;-73
2021/03/31 12:07:31;;;;;;;21.90;12.80;;;;;;;17.77;45.58;102145.16;5036351;28;20357;-73
2021/03/31 12:10:17;;;;;;;19.15;12.70;;;;;;;18.12;45.82;102146.00;5036940;28;20091;-73
2021/03/31 12:13:02;;;;;;;15.45;12.00;;;;;;;18.27;45.97;102136.78;5035564;28;20469;-73
2021/03/31 12:15:48;;;;;;;19.17;12.98;;;;;;;17.92;46.11;102140.34;5037277;28;20028;-73
2021/03/31 12:18:34;;;;;;;16.08;12.98;;;;;;;17.97;46.00;102132.28;5036579;28;20030;-74
2021/03/31 12:21:28;;;;;;;15.68;11.88;;;;;;;18.33;45.29;102128.66;5021678;28;20038;-74
2021/03/31 12:24:14;;;;;;;17.42;13.10;;;;;;;18.03;45.55;102119.72;5036349;28;20034;-75
2021/03/31 12:27:05;;;;;;;14.60;12.55;;;;;;;17.81;46.11;102112.38;5021546;28;20450;-74
2021/03/31 12:29:51;;;;;;;26.95;17.17;;;;;;;17.80;46.25;102102.66;5036197;28;20033;-74
2021/03/31 12:32:37;;;;;;;19.63;13.27;;;;;;;17.41;46.45;102100.97;5035806;28;20527;-74
2021/03/31 12:35:24;;;;;;;18.13;13.20;;;;;;;17.38;47.20;102108.94;5036471;28;20013;-74
2021/03/31 12:38:10;;;;;;;16.15;12.98;;;;;;;17.09;47.89;102090.22;5035918;28;20031;-73
2021/03/31 12:40:56;;;;;;;18.40;12.38;;;;;;;17.72;46.42;102092.25;5035964;28;20413;-74
2021/03/31 12:43:44;;;;;;;15.70;12.60;;;;;;;17.34;46.91;102083.44;5021699;28;20030;-73
2021/03/31 12:46:32;;;;;;;16.83;12.90;;;;;;;17.42;47.72;102069.16;5021124;28;20382;-73
2021/03/31 12:49:18;;;;;;;15.55;12.68;;;;;;;17.78;46.28;102070.88;5035491;28;20320;-72
2021/03/31 12:52:08;;;;;;;15.57;11.93;;;;;;;17.34;47.07;102070.19;5020821;28;20064;-73
2021/03/31 12:57:42;;;;;;;14.18;11.30;;;;;;;18.09;45.60;102057.69;5036197;28;20022;-74
2021/03/31 13:00:31;;;;;;;15.70;12.55;;;;;;;17.97;45.43;102047.41;5036114;28;20332;-73
2021/03/31 13:03:17;;;;;;;17.73;12.73;;;;;;;17.59;45.35;102053.69;5035418;28;20029;-72
2021/03/31 13:06:03;;;;;;;16.90;11.90;;;;;;;17.77;46.08;102049.72;5035347;28;20068;-75
2021/03/31 13:08:52;;;;;;;16.58;12.20;;;;;;;17.72;45.45;102047.16;5021273;28;20516;-74
2021/03/31 13:11:38;;;;;;;17.65;12.15;;;;;;;17.54;46.10;102036.16;5035830;28;20469;-76